Time;durP1;ratioP1;P1;durP2;ratioP2;P2;SDS_P1;SDS_P2;PMS_P1;PMS_P2;Temp;Humidity;BMP_temperature;BMP_pressure;BME280_temperature;BME280_humidity;BME280_pressure;Samples;Min_cycle;Max_cycle;Signal;HPM_P1;HPM_P2
2023/06/25 00:00:22;;;;;;;14.70;8.20;;;;;;;;;;5095607;28;20309;-76
2023/06/25 00:02:47;;;;;;;13.57;8.95;;;;;;;;;;5095438;28;20388;-75
2023/06/25 00:05:13;;;;;;;16.20;8.90;;;;;;;;;;5093994;28;20499;-76
2023/06/25 00:07:39;;;;;;;10.77;8.50;;;;;;;;;;5094986;28;20110;-76
2023/06/25 00:10:04;;;;;;;11.73;8.38;;;;;;;;;;5095189;28;20028;-77
2023/06/25 00:12:29;;;;;;;11.10;8.25;;;;;;;;;;5094835;28;20035;-76
2023/06/25 00:14:57;;;;;;;12.20;8.10;;;;;;;;;;5093732;28;20482;-76
2023/06/25 00:17:27;;;;;;;18.35;8.50;;;;;;;;;;5094825;28;20256;-76
2023/06/25 00:19:53;;;;;;;14.15;7.45;;;;;;;;;;5095135;28;20538;-74
2023/06/25 00:22:18;;;;;;;15.88;8.05;;;;;;;;;;5094590;28;20064;-76
2023/06/25 00:24:43;;;;;;;10.77;7.23;;;;;;;;;;5093591;28;20115;-76
2023/06/25 00:27:08;;;;;;;12.25;7.50;;;;;;;;;;5094617;28;20261;-76
2023/06/25 00:29:34;;;;;;;10.50;7.23;;;;;;;;;;5093406;28;20028;-76
2023/06/25 00:31:59;;;;;;;10.48;6.93;;;;;;;;;;5094647;28;20342;-77
2023/06/25 00:34:24;;;;;;;10.73;7.37;;;;;;;;;;5094575;28;20039;-76
2023/06/25 00:36:51;;;;;;;12.13;7.78;;;;;;;;;;5094534;28;20253;-77
2023/06/25 00:39:17;;;;;;;12.32;7.63;;;;;;;;;;5094500;28;20081;-76
2023/06/25 00:41:43;;;;;;;11.70;7.10;;;;;;;;;;5094518;28;20024;-76
2023/06/25 00:44:08;;;;;;;10.30;7.07;;;;;;;;;;5094238;28;20028;-76
2023/06/25 00:46:33;;;;;;;8.50;6.55;;;;;;;;;;5094742;28;20111;-76
2023/06/25 00:49:05;;;;;;;9.50;6.55;;;;;;;;;;5094044;28;20111;-76
2023/06/25 00:51:30;;;;;;;7.93;6.28;;;;;;;;;;5094483;28;20081;-77
2023/06/25 00:53:56;;;;;;;11.57;6.78;;;;;;;;;;5093047;28;20036;-77
2023/06/25 00:56:27;;;;;;;9.95;6.38;;;;;;;;;;5093982;28;20081;-76
2023/06/25 00:58:57;;;;;;;11.25;6.78;;;;;;;;;;5094289;28;20433;-77
2023/06/25 01:01:26;;;;;;;10.63;6.97;;;;;;;;;;5093813;28;20020;-77
2023/06/25 01:03:56;;;;;;;9.13;6.82;;;;;;;;;;5094786;28;20429;-75
2023/06/25 01:06:29;;;;;;;10.27;6.72;;;;;;;;;;5093852;28;20026;-76
2023/06/25 01:08:56;;;;;;;10.77;7.35;;;;;;;;;;5093823;28;20031;-76
2023/06/25 01:11:22;;;;;;;12.05;7.20;;;;;;;;;;5094309;28;20036;-76
2023/06/25 01:13:47;;;;;;;10.93;7.25;;;;;;;;;;5092465;28;20094;-76
2023/06/25 01:16:12;;;;;;;14.32;7.78;;;;;;;;;;5092522;28;20546;-76
2023/06/25 01:18:39;;;;;;;11.53;7.43;;;;;;;;;;5094756;28;20020;-76
2023/06/25 01:21:07;;;;;;;10.80;7.53;;;;;;;;;;5092587;28;20264;-76
2023/06/25 01:23:34;;;;;;;9.15;6.68;;;;;;;;;;5093804;28;20020;-76
2023/06/25 01:25:59;;;;;;;9.13;6.60;;;;;;;;;;5094058;28;20063;-77
2023/06/25 01:28:24;;;;;;;10.93;7.18;;;;;;;;;;5093656;28;20020;-76
2023/06/25 01:30:51;;;;;;;11.33;6.50;;;;;;;;;;5092035;28;20027;-75
2023/06/25 01:33:19;;;;;;;9.43;6.80;;;;;;;;;;5091830;28;20248;-75
2023/06/25 01:35:44;;;;;;;9.80;6.72;;;;;;;;;;5093774;28;20122;-76
2023/06/25 01:38:10;;;;;;;13.25;7.65;;;;;;;;;;5093742;28;20053;-76
2023/06/25 01:40:36;;;;;;;10.93;6.45;;;;;;;;;;5093740;28;20012;-76
2023/06/25 01:43:01;;;;;;;9.30;6.78;;;;;;;;;;5093660;28;20031;-76
2023/06/25 01:45:26;;;;;;;9.32;6.60;;;;;;;;;;5093688;28;20125;-76
2023/06/25 01:47:51;;;;;;;9.23;6.45;;;;;;;;;;5092490;28;20016;-77
2023/06/25 01:50:16;;;;;;;13.70;7.13;;;;;;;;;;5093532;28;20581;-76
2023/06/25 01:52:42;;;;;;;11.47;7.77;;;;;;;;;;5093562;28;20024;-77
2023/06/25 01:55:07;;;;;;;13.30;6.53;;;;;;;;;;5093396;28;20249;-77
2023/06/25 01:57:33;;;;;;;8.55;6.40;;;;;;;;;;5093334;28;20248;-77
2023/06/25 01:59:58;;;;;;;10.68;6.32;;;;;;;;;;5092051;28;20055;-76
2023/06/25 02:02:23;;;;;;;11.27;6.57;;;;;;;;;;5093213;28;20043;-76
2023/06/25 02:04:48;;;;;;;9.20;6.63;;;;;;;;;;5093205;28;20347;-76
2023/06/25 02:07:14;;;;;;;11.82;6.68;;;;;;;;;;5093099;28;20288;-76
2023/06/25 02:09:39;;;;;;;8.90;6.27;;;;;;;;;;5093551;28;20455;-76
2023/06/25 02:12:04;;;;;;;7.30;6.20;;;;;;;;;;5093077;28;20256;-76
2023/06/25 02:14:31;;;;;;;10.27;6.55;;;;;;;;;;5093078;28;20256;-77
2023/06/25 02:16:56;;;;;;;11.13;7.05;;;;;;;;;;5093132;28;20045;-77
2023/06/25 02:19:21;;;;;;;10.65;6.78;;;;;;;;;;5093241;28;20435;-76
2023/06/25 02:21:47;;;;;;;11.33;6.67;;;;;;;;;;5093121;28;20039;-76
2023/06/25 02:24:12;;;;;;;10.07;6.40;;;;;;;;;;5093092;28;20272;-76
2023/06/25 02:26:39;;;;;;;8.13;6.40;;;;;;;;;;5092952;28;20265;-76
2023/06/25 02:29:04;;;;;;;13.77;6.35;;;;;;;;;;5093084;28;20479;-76
2023/06/25 02:31:29;;;;;;;13.00;6.97;;;;;;;;;;5093061;28;20043;-76
2023/06/25 02:33:54;;;;;;;9.53;6.60;;;;;;;;;;5093224;28;20265;-76
2023/06/25 02:36:20;;;;;;;11.33;6.67;;;;;;;;;;5092841;28;20272;-76
2023/06/25 02:38:45;;;;;;;10.43;6.60;;;;;;;;;;5093325;28;20265;-75
2023/06/25 02:41:10;;;;;;;10.50;6.67;;;;;;;;;;5093192;28;20264;-76
2023/06/25 02:43:35;;;;;;;12.77;6.73;;;;;;;;;;5092957;28;20273;-76
2023/06/25 02:46:00;;;;;;;14.03;6.47;;;;;;;;;;5095808;28;20266;-76
2023/06/25 02:48:26;;;;;;;13.02;6.80;;;;;;;;;;5096445;28;20803;-76
2023/06/25 02:50:51;;;;;;;13.23;6.80;;;;;;;;;;5096270;28;20028;-75
2023/06/25 02:53:16;;;;;;;9.93;6.77;;;;;;;;;;5096321;28;20364;-76
2023/06/25 02:55:41;;;;;;;18.20;7.27;;;;;;;;;;5096710;28;20261;-76
2023/06/25 02:58:07;;;;;;;13.50;7.13;;;;;;;;;;5096179;28;20252;-76
2023/06/25 03:00:32;;;;;;;9.90;6.57;;;;;;;;;;5096412;28;20020;-76
2023/06/25 03:02:57;;;;;;;10.52;6.18;;;;;;;;;;5096084;28;20257;-76
2023/06/25 03:05:22;;;;;;;10.48;6.82;;;;;;;;;;5096200;28;20058;-76
2023/06/25 03:07:51;;;;;;;10.40;5.88;;;;;;;;;;5096125;28;20074;-77
2023/06/25 03:10:17;;;;;;;12.77;6.72;;;;;;;;;;5096128;28;20399;-75
2023/06/25 03:12:42;;;;;;;12.43;6.45;;;;;;;;;;5095899;28;20020;-76
2023/06/25 03:15:08;;;;;;;10.70;6.67;;;;;;;;;;5095919;28;20039;-76
2023/06/25 03:17:34;;;;;;;10.15;6.55;;;;;;;;;;5094418;28;20264;-76
2023/06/25 03:19:59;;;;;;;10.63;6.38;;;;;;;;;;5095645;28;20102;-75
2023/06/25 03:22:24;;;;;;;14.10;6.20;;;;;;;;;;5095726;28;20035;-76
2023/06/25 03:24:49;;;;;;;12.03;6.30;;;;;;;;;;5095644;28;20275;-76
2023/06/25 03:27:14;;;;;;;12.20;6.70;;;;;;;;;;5095926;28;20272;-76
2023/06/25 03:29:40;;;;;;;17.53;6.27;;;;;;;;;;5094308;28;20287;-77
2023/06/25 03:32:05;;;;;;;8.33;5.97;;;;;;;;;;5095984;28;20261;-76
2023/06/25 03:34:30;;;;;;;9.75;6.15;;;;;;;;;;5094252;28;20267;-76
2023/06/25 03:36:56;;;;;;;10.07;6.38;;;;;;;;;;5095554;28;20020;-76
2023/06/25 03:39:21;;;;;;;11.67;6.70;;;;;;;;;;5095704;28;20482;-76
2023/06/25 03:41:46;;;;;;;9.83;6.50;;;;;;;;;;5094207;28;20623;-76
2023/06/25 03:44:11;;;;;;;10.87;6.27;;;;;;;;;;5095293;28;20735;-76
2023/06/25 03:46:37;;;;;;;11.70;6.67;;;;;;;;;;5095303;28;20777;-76
2023/06/25 03:49:02;;;;;;;10.70;6.40;;;;;;;;;;5095256;28;20735;-77
2023/06/25 03:51:27;;;;;;;10.02;6.40;;;;;;;;;;5095118;28;20803;-77
2023/06/25 03:53:55;;;;;;;10.83;6.10;;;;;;;;;;5095261;28;20031;-75
2023/06/25 03:56:20;;;;;;;10.55;6.55;;;;;;;;;;5093150;28;20268;-75
2023/06/25 03:58:45;;;;;;;11.23;6.13;;;;;;;;;;5095092;28;20155;-75
2023/06/25 04:01:10;;;;;;;9.80;6.50;;;;;;;;;;5093689;28;20302;-76
2023/06/25 04:03:36;;;;;;;11.87;6.87;;;;;;;;;;5095030;28;20252;-76
2023/06/25 04:06:01;;;;;;;10.63;5.87;;;;;;;;;;5095127;28;20306;-76
2023/06/25 04:08:26;;;;;;;9.07;5.80;;;;;;;;;;5093654;28;20272;-76
2023/06/25 04:10:51;;;;;;;10.50;6.63;;;;;;;;;;5094811;28;20024;-76
2023/06/25 04:13:16;;;;;;;11.50;7.03;;;;;;;;;;5094849;28;20284;-76
2023/06/25 04:15:42;;;;;;;6.80;5.43;;;;;;;;;;5093488;28;20256;-75
2023/06/25 04:18:07;;;;;;;10.55;6.18;;;;;;;;;;5094559;28;20267;-75
2023/06/25 04:20:32;;;;;;;14.13;6.57;;;;;;;;;;5095132;28;20031;-76
2023/06/25 04:22:58;;;;;;;10.73;5.73;;;;;;;;;;5094854;28;20272;-76
2023/06/25 04:25:23;;;;;;;9.73;6.40;;;;;;;;;;5093124;28;20260;-75
2023/06/25 04:27:49;;;;;;;10.13;6.45;;;;;;;;;;5094209;28;20046;-76
2023/06/25 04:30:14;;;;;;;8.60;5.90;;;;;;;;;;5094316;28;20107;-75
2023/06/25 04:32:39;;;;;;;9.23;6.40;;;;;;;;;;5093096;28;20104;-76
2023/06/25 04:35:05;;;;;;;8.70;6.30;;;;;;;;;;5094454;28;20055;-76
2023/06/25 04:37:30;;;;;;;12.23;6.18;;;;;;;;;;5094261;28;20310;-77
2023/06/25 04:39:56;;;;;;;8.10;5.60;;;;;;;;;;5094213;28;20024;-75
2023/06/25 04:42:21;;;;;;;11.47;6.23;;;;;;;;;;5094120;28;20256;-76
2023/06/25 04:44:46;;;;;;;14.63;6.15;;;;;;;;;;5094191;28;20268;-75
2023/06/25 04:47:12;;;;;;;13.20;6.03;;;;;;;;;;5093983;28;20053;-76
2023/06/25 04:49:37;;;;;;;7.93;5.67;;;;;;;;;;5094318;28;20031;-76
2023/06/25 04:52:03;;;;;;;10.25;6.53;;;;;;;;;;5094072;28;20256;-76
2023/06/25 04:54:28;;;;;;;10.75;6.40;;;;;;;;;;5092638;28;20092;-75
2023/06/25 04:56:53;;;;;;;10.63;5.87;;;;;;;;;;5094224;28;20031;-75
2023/06/25 04:59:18;;;;;;;8.70;5.40;;;;;;;;;;5094317;28;20252;-75
2023/06/25 05:01:44;;;;;;;12.13;5.90;;;;;;;;;;5093823;28;20268;-76
2023/06/25 05:04:09;;;;;;;8.33;6.03;;;;;;;;;;5093656;28;20256;-76
2023/06/25 05:06:34;;;;;;;10.23;5.57;;;;;;;;;;5092314;28;20313;-77
2023/06/25 05:08:59;;;;;;;9.00;6.20;;;;;;;;;;5092812;28;20265;-75
2023/06/25 05:11:24;;;;;;;8.50;5.70;;;;;;;;;;5093789;28;20394;-76
2023/06/25 05:13:50;;;;;;;10.27;5.90;;;;;;;;;;5092381;28;20300;-76
2023/06/25 05:16:15;;;;;;;8.47;5.80;;;;;;;;;;5093444;28;20256;-75
2023/06/25 05:18:41;;;;;;;12.57;5.50;;;;;;;;;;5093554;28;20260;-76
2023/06/25 05:21:07;;;;;;;8.40;5.43;;;;;;;;;;5093757;28;20035;-76
2023/06/25 05:23:59;;;;;;;12.32;5.72;;;;;;;;;;5093674;28;20028;-76
2023/06/25 05:26:24;;;;;;;8.38;5.10;;;;;;;;;;5090382;28;20437;-76
2023/06/25 05:28:49;;;;;;;8.02;5.32;;;;;;;;;;5093397;28;20025;-76
2023/06/25 05:31:15;;;;;;;9.00;5.37;;;;;;;;;;5092065;28;20024;-76
2023/06/25 05:33:40;;;;;;;7.47;5.03;;;;;;;;;;5093487;28;20260;-76
2023/06/25 05:36:05;;;;;;;15.53;5.57;;;;;;;;;;5093697;28;20454;-76
2023/06/25 05:38:30;;;;;;;6.47;5.10;;;;;;;;;;5093310;28;20289;-76
2023/06/25 05:40:56;;;;;;;6.57;4.90;;;;;;;;;;5093713;28;20012;-76
2023/06/25 05:43:21;;;;;;;10.07;5.47;;;;;;;;;;5092324;28;20245;-76
2023/06/25 05:45:46;;;;;;;7.88;5.68;;;;;;;;;;5092150;28;20016;-76
2023/06/25 05:48:12;;;;;;;6.53;5.17;;;;;;;;;;5091984;28;20080;-76
2023/06/25 05:50:37;;;;;;;13.32;5.85;;;;;;;;;;5093254;28;20366;-75
2023/06/25 05:53:02;;;;;;;9.10;5.30;;;;;;;;;;5093442;28;20028;-75
2023/06/25 05:55:27;;;;;;;6.15;5.00;;;;;;;;;;5093523;28;20256;-76
2023/06/25 05:57:53;;;;;;;11.60;5.57;;;;;;;;;;5093281;28;20024;-76
2023/06/25 06:00:21;;;;;;;8.52;5.05;;;;;;;;;;5093355;28;20252;-76
2023/06/25 06:02:46;;;;;;;7.30;5.32;;;;;;;;;;5093310;28;20034;-76
2023/06/25 06:05:12;;;;;;;9.50;5.65;;;;;;;;;;5093586;28;20390;-77
2023/06/25 06:07:37;;;;;;;7.05;5.15;;;;;;;;;;5093040;28;20447;-75
2023/06/25 06:10:02;;;;;;;8.57;5.55;;;;;;;;;;5093196;28;20107;-75
2023/06/25 06:12:27;;;;;;;7.90;5.20;;;;;;;;;;5092998;28;20031;-75
2023/06/25 06:14:53;;;;;;;10.32;5.47;;;;;;;;;;5091770;28;20475;-75
2023/06/25 06:17:18;;;;;;;8.10;5.30;;;;;;;;;;5093199;28;20043;-75
2023/06/25 06:19:43;;;;;;;7.97;4.73;;;;;;;;;;5095356;28;20421;-77
2023/06/25 06:22:09;;;;;;;8.37;4.60;;;;;;;;;;5097207;28;20631;-76
2023/06/25 06:24:34;;;;;;;8.37;4.70;;;;;;;;;;5097164;28;20712;-76
2023/06/25 06:26:59;;;;;;;12.15;4.90;;;;;;;;;;5096740;28;20754;-76
2023/06/25 06:29:24;;;;;;;9.30;4.97;;;;;;;;;;5095625;28;20032;-76
2023/06/25 06:31:49;;;;;;;7.37;5.10;;;;;;;;;;5097332;28;20256;-77
2023/06/25 06:34:15;;;;;;;13.73;5.17;;;;;;;;;;5096819;28;20257;-76
2023/06/25 06:36:40;;;;;;;7.43;4.75;;;;;;;;;;5096912;28;20341;-76
2023/06/25 06:39:05;;;;;;;6.40;5.17;;;;;;;;;;5096931;28;20020;-76
2023/06/25 06:41:31;;;;;;;8.20;5.22;;;;;;;;;;5095417;28;20647;-76
2023/06/25 06:44:18;;;;;;;9.80;4.60;;;;;;;;;;5096855;28;20475;-76
2023/06/25 06:46:44;;;;;;;9.07;5.10;;;;;;;;;;5096991;28;20241;-76
2023/06/25 06:49:10;;;;;;;7.72;4.82;;;;;;;;;;5096638;28;20024;-76
2023/06/25 06:51:36;;;;;;;7.35;5.05;;;;;;;;;;5096823;28;20035;-76
2023/06/25 06:54:02;;;;;;;6.85;4.50;;;;;;;;;;5096790;28;20016;-76
2023/06/25 06:56:27;;;;;;;6.20;4.47;;;;;;;;;;5096563;28;20483;-76
2023/06/25 06:58:52;;;;;;;6.13;4.40;;;;;;;;;;5096668;28;20461;-76
2023/06/25 07:01:17;;;;;;;8.97;4.60;;;;;;;;;;5096837;28;20656;-75
2023/06/25 07:03:42;;;;;;;7.30;4.73;;;;;;;;;;5096839;28;20248;-74
2023/06/25 07:06:08;;;;;;;9.15;4.50;;;;;;;;;;5096879;28;20367;-75
2023/06/25 07:08:33;;;;;;;7.97;4.83;;;;;;;;;;5096368;28;20410;-76
2023/06/25 07:10:58;;;;;;;8.23;4.13;;;;;;;;;;5096232;28;20346;-75
2023/06/25 07:13:24;;;;;;;6.83;4.30;;;;;;;;;;5096885;28;20020;-75
2023/06/25 07:15:49;;;;;;;6.18;4.20;;;;;;;;;;5095440;28;20261;-76
2023/06/25 07:18:14;;;;;;;7.87;4.30;;;;;;;;;;5096415;28;20497;-76
2023/06/25 07:20:39;;;;;;;7.13;4.33;;;;;;;;;;5094964;28;20755;-76
2023/06/25 07:23:04;;;;;;;8.20;4.60;;;;;;;;;;5096757;28;20252;-76
2023/06/25 07:25:30;;;;;;;7.50;4.23;;;;;;;;;;5095999;28;20656;-76
2023/06/25 07:27:55;;;;;;;20.80;4.80;;;;;;;;;;5096136;28;20804;-76
2023/06/25 07:30:21;;;;;;;8.50;4.57;;;;;;;;;;5095739;28;20024;-76
2023/06/25 07:32:46;;;;;;;8.25;4.32;;;;;;;;;;5095758;28;20344;-76
2023/06/25 07:35:11;;;;;;;5.60;4.20;;;;;;;;;;5096176;28;20054;-76
2023/06/25 07:37:36;;;;;;;5.10;4.07;;;;;;;;;;5096255;28;20283;-75
2023/06/25 07:40:02;;;;;;;4.30;3.90;;;;;;;;;;5096086;28;20106;-75
2023/06/25 07:42:27;;;;;;;10.95;4.25;;;;;;;;;;5095713;28;20291;-76
2023/06/25 07:44:52;;;;;;;5.17;3.80;;;;;;;;;;5096252;28;20526;-76
2023/06/25 07:47:17;;;;;;;5.23;3.83;;;;;;;;;;5095996;28;20774;-77
2023/06/25 07:49:43;;;;;;;11.77;4.77;;;;;;;;;;5095953;28;20799;-75
2023/06/25 07:52:08;;;;;;;7.33;4.20;;;;;;;;;;5095475;28;20675;-77
2023/06/25 07:54:33;;;;;;;6.90;4.22;;;;;;;;;;5094329;28;20771;-76
2023/06/25 07:56:58;;;;;;;4.57;3.80;;;;;;;;;;5095838;28;20028;-76
2023/06/25 07:59:24;;;;;;;9.07;3.80;;;;;;;;;;5095634;28;20382;-77
2023/06/25 08:01:49;;;;;;;5.47;3.30;;;;;;;;;;5094009;28;20623;-76
2023/06/25 08:04:14;;;;;;;5.80;3.73;;;;;;;;;;5095567;28;20344;-76
2023/06/25 08:06:39;;;;;;;6.70;3.77;;;;;;;;;;5095422;28;20365;-76
2023/06/25 08:09:05;;;;;;;6.32;3.47;;;;;;;;;;5095170;28;20257;-77
2023/06/25 08:11:30;;;;;;;7.53;4.22;;;;;;;;;;5095437;28;20038;-76
2023/06/25 08:13:55;;;;;;;8.38;3.95;;;;;;;;;;5095123;28;20024;-77
2023/06/25 08:16:22;;;;;;;6.00;3.35;;;;;;;;;;5093362;28;20020;-76
2023/06/25 08:18:47;;;;;;;8.73;4.22;;;;;;;;;;5094829;28;20391;-76
2023/06/25 08:21:13;;;;;;;5.88;3.47;;;;;;;;;;5093446;28;20020;-76
2023/06/25 08:23:38;;;;;;;4.85;3.50;;;;;;;;;;5094760;28;20119;-76
2023/06/25 08:26:03;;;;;;;7.43;3.60;;;;;;;;;;5095165;28;20016;-75
2023/06/25 08:28:28;;;;;;;5.15;3.70;;;;;;;;;;5094487;28;20348;-76
2023/06/25 08:30:54;;;;;;;7.30;3.70;;;;;;;;;;5094587;28;20376;-76
2023/06/25 08:33:19;;;;;;;7.03;3.70;;;;;;;;;;5094704;28;20635;-76
2023/06/25 08:35:44;;;;;;;6.17;3.60;;;;;;;;;;5094743;28;20094;-76
2023/06/25 08:38:10;;;;;;;5.53;3.63;;;;;;;;;;5094479;28;20306;-76
2023/06/25 08:40:36;;;;;;;5.00;3.28;;;;;;;;;;5094682;28;20601;-76
2023/06/25 08:43:02;;;;;;;7.60;3.30;;;;;;;;;;5094875;28;20030;-76
2023/06/25 08:45:28;;;;;;;5.00;3.35;;;;;;;;;;5094261;28;20030;-76
2023/06/25 08:47:55;;;;;;;6.05;3.15;;;;;;;;;;5094230;28;20174;-76
2023/06/25 08:50:20;;;;;;;3.85;3.30;;;;;;;;;;5092743;28;20028;-76
2023/06/25 08:52:47;;;;;;;4.60;3.20;;;;;;;;;;5094352;28;20106;-77
2023/06/25 08:55:12;;;;;;;4.57;3.40;;;;;;;;;;5093047;28;20042;-76
2023/06/25 08:57:37;;;;;;;5.55;3.13;;;;;;;;;;5093047;28;20016;-75
2023/06/25 09:00:06;;;;;;;4.18;3.42;;;;;;;;;;5094478;28;20016;-76
2023/06/25 09:02:32;;;;;;;4.38;3.13;;;;;;;;;;5094339;28;20020;-75
2023/06/25 09:05:08;;;;;;;11.27;3.25;;;;;;;;;;5094501;28;20078;-77
2023/06/25 09:07:35;;;;;;;4.88;3.28;;;;;;;;;;5094259;28;20402;-76
2023/06/25 09:10:00;;;;;;;4.00;3.38;;;;;;;;;;5094184;28;20081;-76
2023/06/25 09:12:27;;;;;;;5.55;3.00;;;;;;;;;;5094614;28;20055;-77
2023/06/25 09:14:52;;;;;;;3.95;3.13;;;;;;;;;;5094113;28;20020;-76
2023/06/25 09:17:21;;;;;;;5.05;3.05;;;;;;;;;;5094049;28;20403;-77
2023/06/25 09:19:46;;;;;;;4.97;3.25;;;;;;;;;;5094263;28;20482;-76
2023/06/25 09:22:12;;;;;;;4.05;3.03;;;;;;;;;;5092786;28;20122;-76
2023/06/25 09:24:42;;;;;;;3.92;3.15;;;;;;;;;;5094158;28;20045;-76
2023/06/25 09:27:10;;;;;;;5.03;3.20;;;;;;;;;;5094124;28;20063;-77
2023/06/25 09:29:36;;;;;;;5.22;3.00;;;;;;;;;;5093824;28;20055;-76
2023/06/25 09:32:11;;;;;;;8.90;3.33;;;;;;;;;;5093343;28;20028;-76
2023/06/25 09:34:39;;;;;;;3.88;3.00;;;;;;;;;;5093522;28;20075;-76
2023/06/25 09:37:05;;;;;;;4.28;3.05;;;;;;;;;;5093668;28;20020;-76
2023/06/25 09:39:31;;;;;;;5.93;3.15;;;;;;;;;;5094042;28;20376;-77
2023/06/25 09:41:57;;;;;;;7.13;3.38;;;;;;;;;;5093996;28;20502;-77
2023/06/25 09:44:23;;;;;;;5.28;3.30;;;;;;;;;;5093783;28;20026;-76
2023/06/25 09:46:52;;;;;;;5.45;3.58;;;;;;;;;;5092460;28;20119;-76
2023/06/25 09:49:19;;;;;;;6.30;3.17;;;;;;;;;;5093990;28;20019;-76
2023/06/25 09:51:53;;;;;;;4.07;3.40;;;;;;;;;;5093875;28;20024;-77
2023/06/25 09:54:21;;;;;;;5.28;3.65;;;;;;;;;;5095791;28;20062;-76
2023/06/25 09:56:48;;;;;;;5.30;3.30;;;;;;;;;;5097792;28;20020;-76
2023/06/25 09:59:14;;;;;;;5.93;3.78;;;;;;;;;;5097726;28;20035;-77
2023/06/25 10:01:39;;;;;;;11.18;3.50;;;;;;;;;;5097752;28;20028;-75
2023/06/25 10:04:05;;;;;;;3.97;3.55;;;;;;;;;;5097953;28;20112;-75
2023/06/25 10:06:31;;;;;;;7.00;3.42;;;;;;;;;;5097658;28;20487;-76
2023/06/25 10:08:57;;;;;;;7.53;3.55;;;;;;;;;;5097240;28;20028;-76
2023/06/25 10:11:22;;;;;;;4.97;3.70;;;;;;;;;;5097014;28;20032;-75
2023/06/25 10:13:48;;;;;;;5.20;3.67;;;;;;;;;;5096039;28;20264;-76
2023/06/25 10:16:18;;;;;;;4.63;3.63;;;;;;;;;;5097131;28;20024;-76
2023/06/25 10:18:45;;;;;;;5.25;3.40;;;;;;;;;;5096967;28;20052;-75
2023/06/25 10:21:18;;;;;;;6.38;3.75;;;;;;;;;;5097053;28;20032;-76
2023/06/25 10:24:02;;;;;;;4.80;3.25;;;;;;;;;;5095806;28;20047;-75
2023/06/25 10:26:28;;;;;;;;;;;;;;;;;;5097453;28;20047;-76
2023/06/25 10:28:53;;;;;;;4.55;3.30;;;;;;;;;;5097363;28;19908;-76
2023/06/25 10:31:19;;;;;;;6.72;3.50;;;;;;;;;;5097280;28;20074;-76
2023/06/25 10:33:44;;;;;;;5.28;3.42;;;;;;;;;;5097148;28;20028;-76
2023/06/25 10:36:10;;;;;;;6.27;3.13;;;;;;;;;;5096745;28;20100;-75
2023/06/25 10:38:35;;;;;;;4.43;3.50;;;;;;;;;;5097467;28;20758;-76
2023/06/25 10:41:01;;;;;;;4.38;3.60;;;;;;;;;;5097057;28;20023;-75
2023/06/25 10:43:26;;;;;;;5.15;3.22;;;;;;;;;;5097255;28;20028;-76
2023/06/25 10:45:53;;;;;;;3.42;2.78;;;;;;;;;;5096758;28;20042;-75
2023/06/25 10:48:19;;;;;;;4.85;3.55;;;;;;;;;;5096385;28;20157;-75
2023/06/25 10:50:44;;;;;;;4.10;2.88;;;;;;;;;;5096495;28;20107;-76
2023/06/25 10:53:21;;;;;;;8.35;3.50;;;;;;;;;;5096336;28;20398;-76
2023/06/25 10:55:52;;;;;;;5.45;3.63;;;;;;;;;;5094958;28;20034;-77
2023/06/25 10:58:20;;;;;;;4.72;3.60;;;;;;;;;;5097058;28;20048;-75
2023/06/25 11:00:51;;;;;;;5.75;3.85;;;;;;;;;;5096614;28;20027;-77
2023/06/25 11:03:17;;;;;;;4.55;3.22;;;;;;;;;;5096537;28;20024;-76
2023/06/25 11:05:43;;;;;;;4.67;3.20;;;;;;;;;;5095516;28;20022;-75
2023/06/25 11:08:08;;;;;;;4.18;3.00;;;;;;;;;;5095653;28;20051;-75
2023/06/25 11:10:36;;;;;;;5.38;3.30;;;;;;;;;;5096377;28;20475;-75
2023/06/25 11:13:01;;;;;;;4.80;3.13;;;;;;;;;;5095913;28;20487;-76
2023/06/25 11:15:33;;;;;;;5.68;3.08;;;;;;;;;;5096147;28;20028;-76
2023/06/25 11:17:59;;;;;;;4.32;3.05;;;;;;;;;;5094456;28;20024;-76
2023/06/25 11:20:25;;;;;;;5.38;4.32;;;;;;;;;;5095652;28;20115;-76
2023/06/25 11:22:51;;;;;;;3.92;3.35;;;;;;;;;;5095650;28;20028;-77
2023/06/25 11:25:17;;;;;;;4.30;3.15;;;;;;;;;;5095863;28;20024;-76
2023/06/25 11:27:42;;;;;;;3.80;2.92;;;;;;;;;;5095651;28;20028;-76
2023/06/25 11:30:09;;;;;;;6.30;3.30;;;;;;;;;;5095304;28;20256;-76
2023/06/25 11:32:37;;;;;;;3.42;3.05;;;;;;;;;;5095427;28;20260;-78
2023/06/25 11:35:13;;;;;;;4.40;3.03;;;;;;;;;;5095373;28;20015;-76
2023/06/25 11:37:49;;;;;;;4.78;3.15;;;;;;;;;;5095463;28;20187;-76
2023/06/25 11:40:25;;;;;;;4.05;2.78;;;;;;;;;;5095735;28;20102;-77
2023/06/25 11:42:51;;;;;;;2.70;2.38;;;;;;;;;;5095762;28;20031;-75
2023/06/25 11:45:16;;;;;;;5.32;2.83;;;;;;;;;;5095678;28;20150;-75
2023/06/25 11:47:53;;;;;;;6.15;3.20;;;;;;;;;;5095504;28;20048;-77
2023/06/25 11:50:23;;;;;;;7.07;3.20;;;;;;;;;;5095361;28;20111;-76
2023/06/25 11:52:48;;;;;;;5.93;3.10;;;;;;;;;;5095681;28;20149;-76
2023/06/25 11:55:14;;;;;;;3.70;3.05;;;;;;;;;;5096540;28;20047;-75
2023/06/25 11:57:40;;;;;;;4.65;3.28;;;;;;;;;;5095549;28;20031;-77
2023/06/25 12:00:06;;;;;;;5.10;2.88;;;;;;;;;;5095089;28;20091;-75
2023/06/25 12:02:31;;;;;;;3.25;2.55;;;;;;;;;;5095422;28;20055;-77
2023/06/25 12:04:57;;;;;;;3.95;2.88;;;;;;;;;;5095235;28;20059;-77
2023/06/25 12:07:22;;;;;;;6.60;3.20;;;;;;;;;;5094773;28;20392;-76
2023/06/25 12:09:47;;;;;;;3.53;2.93;;;;;;;;;;5095106;28;20154;-75
2023/06/25 12:12:13;;;;;;;4.03;3.00;;;;;;;;;;5094848;28;20248;-77
2023/06/25 12:14:38;;;;;;;6.10;2.73;;;;;;;;;;5094949;28;20321;-76
2023/06/25 12:17:03;;;;;;;4.63;3.10;;;;;;;;;;5094515;28;20288;-76
2023/06/25 12:19:28;;;;;;;5.68;3.47;;;;;;;;;;5094391;28;20322;-74
2023/06/25 12:21:56;;;;;;;3.70;2.83;;;;;;;;;;5094265;28;20035;-75
2023/06/25 12:24:22;;;;;;;8.32;3.60;;;;;;;;;;5093396;28;20819;-76
2023/06/25 12:26:47;;;;;;;7.63;3.38;;;;;;;;;;5094031;28;20028;-76
2023/06/25 12:29:13;;;;;;;4.63;3.40;;;;;;;;;;5094292;28;20391;-76
2023/06/25 12:31:38;;;;;;;3.67;2.77;;;;;;;;;;5092873;28;20321;-76
2023/06/25 12:34:03;;;;;;;3.33;2.77;;;;;;;;;;5093030;28;20020;-75
2023/06/25 12:36:28;;;;;;;5.80;3.03;;;;;;;;;;5094099;28;20292;-75
2023/06/25 12:38:54;;;;;;;4.07;2.70;;;;;;;;;;5094183;28;20253;-75
2023/06/25 12:41:19;;;;;;;5.73;3.33;;;;;;;;;;5093958;28;20028;-76
2023/06/25 12:43:44;;;;;;;3.80;3.03;;;;;;;;;;5094551;28;20351;-75
2023/06/25 12:46:09;;;;;;;4.63;3.10;;;;;;;;;;5094196;28;20032;-75
2023/06/25 12:48:34;;;;;;;3.80;2.83;;;;;;;;;;5092613;28;20020;-76
2023/06/25 12:51:00;;;;;;;6.47;3.30;;;;;;;;;;5094077;28;20101;-76
2023/06/25 12:53:25;;;;;;;4.77;3.03;;;;;;;;;;5093734;28;20340;-76
2023/06/25 12:55:50;;;;;;;4.50;3.00;;;;;;;;;;5094057;28;20062;-76
2023/06/25 12:58:15;;;;;;;4.72;3.20;;;;;;;;;;5094310;28;20267;-76
2023/06/25 13:00:41;;;;;;;6.93;3.10;;;;;;;;;;5094293;28;20024;-76
2023/06/25 13:03:06;;;;;;;4.93;3.53;;;;;;;;;;5093615;28;20020;-76
2023/06/25 13:05:31;;;;;;;4.77;3.20;;;;;;;;;;5093858;28;20265;-76
2023/06/25 13:07:56;;;;;;;4.47;3.23;;;;;;;;;;5093915;28;20034;-77
2023/06/25 13:10:21;;;;;;;4.97;3.63;;;;;;;;;;5093733;28;20349;-77
2023/06/25 13:12:47;;;;;;;4.70;3.17;;;;;;;;;;5093854;28;20028;-77
2023/06/25 13:15:12;;;;;;;4.23;2.80;;;;;;;;;;5093630;28;20027;-76
2023/06/25 13:17:37;;;;;;;4.27;3.07;;;;;;;;;;5093653;28;20256;-76
2023/06/25 13:20:03;;;;;;;4.70;3.40;;;;;;;;;;5092168;28;20073;-76
2023/06/25 13:22:28;;;;;;;4.80;3.17;;;;;;;;;;5093348;28;20623;-77
2023/06/25 13:24:54;;;;;;;4.88;3.20;;;;;;;;;;5093855;28;20028;-77
2023/06/25 13:27:19;;;;;;;4.53;3.03;;;;;;;;;;5093470;28;20027;-77
2023/06/25 13:29:44;;;;;;;4.80;3.27;;;;;;;;;;5092869;28;20272;-76
2023/06/25 13:32:09;;;;;;;3.67;2.77;;;;;;;;;;5094053;28;20085;-75
2023/06/25 13:34:35;;;;;;;5.85;3.35;;;;;;;;;;5093464;28;20058;-76
2023/06/25 13:37:00;;;;;;;4.68;3.05;;;;;;;;;;5093388;28;20502;-76
2023/06/25 13:39:26;;;;;;;5.22;3.22;;;;;;;;;;5093401;28;20032;-76
2023/06/25 13:41:51;;;;;;;9.38;3.25;;;;;;;;;;5093143;28;20028;-75
2023/06/25 13:44:16;;;;;;;4.97;3.23;;;;;;;;;;5093112;28;20539;-76
2023/06/25 13:46:41;;;;;;;4.88;3.33;;;;;;;;;;5091929;28;20306;-75
2023/06/25 13:49:07;;;;;;;4.47;3.13;;;;;;;;;;5093190;28;20039;-76
2023/06/25 13:51:32;;;;;;;5.90;3.20;;;;;;;;;;5092987;28;20824;-76
2023/06/25 13:53:57;;;;;;;4.93;3.10;;;;;;;;;;5093156;28;20024;-76
2023/06/25 13:56:22;;;;;;;5.90;3.10;;;;;;;;;;5092944;28;20056;-76
2023/06/25 13:58:48;;;;;;;8.32;4.45;;;;;;;;;;5093354;28;20257;-76
2023/06/25 14:01:13;;;;;;;4.87;3.50;;;;;;;;;;5093232;28;20027;-76
2023/06/25 14:03:38;;;;;;;4.35;3.10;;;;;;;;;;5093301;28;20262;-75
2023/06/25 14:06:03;;;;;;;6.07;3.20;;;;;;;;;;5091184;28;20078;-76
2023/06/25 14:08:29;;;;;;;5.77;3.70;;;;;;;;;;5092887;28;20261;-77
2023/06/25 14:10:54;;;;;;;3.90;3.20;;;;;;;;;;5093691;28;20272;-77
2023/06/25 14:13:20;;;;;;;4.60;3.37;;;;;;;;;;5093089;28;20422;-77
2023/06/25 14:15:46;;;;;;;4.93;3.17;;;;;;;;;;5091667;28;20256;-77
2023/06/25 14:18:11;;;;;;;7.40;3.47;;;;;;;;;;5091386;28;20451;-77
2023/06/25 14:20:37;;;;;;;4.18;2.92;;;;;;;;;;5092819;28;20539;-77
2023/06/25 14:23:02;;;;;;;3.83;3.10;;;;;;;;;;5093044;28;20020;-77
2023/06/25 14:25:28;;;;;;;8.20;2.97;;;;;;;;;;5092879;28;20055;-76
2023/06/25 14:27:54;;;;;;;3.72;2.88;;;;;;;;;;5092913;28;20406;-77
2023/06/25 14:30:20;;;;;;;3.22;2.85;;;;;;;;;;5092629;28;20020;-76